Time;durP1;ratioP1;P1;durP2;ratioP2;P2;SDS_P1;SDS_P2;PMS_P1;PMS_P2;Temp;Humidity;BMP_temperature;BMP_pressure;BME280_temperature;BME280_humidity;BME280_pressure;Samples;Min_cycle;Max_cycle;Signal;HPM_P1;HPM_P2
2023/04/27 00:01:05;;;;;;;;;;;;;;;;;;5070435;28;19929;-62
2023/04/27 00:03:31;;;;;;;;;;;;;;;;;;5069588;28;19925;-62
2023/04/27 00:05:57;;;;;;;;;;;;;;;;;;5064940;28;19920;-62
2023/04/27 00:08:23;;;;;;;;;;;;;;;;;;5068153;28;19925;-62
2023/04/27 00:10:49;;;;;;;;;;;;;;;;;;5068074;28;19924;-62
2023/04/27 00:13:15;;;;;;;;;;;;;;;;;;5068076;28;19920;-62
2023/04/27 00:15:41;;;;;;;;;;;;;;;;;;5068175;28;20636;-62
2023/04/27 00:18:07;;;;;;;;;;;;;;;;;;5060193;28;19924;-63
2023/04/27 00:20:33;;;;;;;;;;;;;;;;;;5071508;28;19959;-62
2023/04/27 00:22:59;;;;;;;;;;;;;;;;;;5060689;28;19957;-62
2023/04/27 00:25:25;;;;;;;;;;;;;;;;;;5070547;28;19947;-62
2023/04/27 00:27:51;;;;;;;;;;;;;;;;;;5058597;28;19924;-62
2023/04/27 00:30:17;;;;;;;;;;;;;;;;;;5071940;28;19980;-61
2023/04/27 00:32:43;;;;;;;;;;;;;;;;;;5069602;28;19928;-62
2023/04/27 00:35:09;;;;;;;;;;;;;;;;;;5072558;28;20610;-62
2023/04/27 00:37:35;;;;;;;;;;;;;;;;;;5072173;28;20421;-61
2023/04/27 00:40:01;;;;;;;;;;;;;;;;;;5073675;28;19925;-61
2023/04/27 00:42:26;;;;;;;;;;;;;;;;;;5089315;28;20408;-62
2023/04/27 00:44:52;;;;;;;;;;;;;;;;;;5069250;28;19920;-62
2023/04/27 00:47:18;;;;;;;;;;;;;;;;;;5071333;28;19929;-62
2023/04/27 00:49:44;;;;;;;;;;;;;;;;;;5071064;28;19920;-62
2023/04/27 00:52:10;;;;;;;;;;;;;;;;;;5066887;28;20361;-61
2023/04/27 00:54:36;;;;;;;;;;;;;;;;;;5069878;28;20651;-62
2023/04/27 00:57:02;;;;;;;;;;;;;;;;;;5051827;28;19921;-62
2023/04/27 00:59:28;;;;;;;;;;;;;;;;;;5061047;28;19947;-61
2023/04/27 01:01:54;;;;;;;;;;;;;;;;;;5062466;28;20386;-61
2023/04/27 01:04:20;;;;;;;;;;;;;;;;;;5068243;28;19924;-62
2023/04/27 01:06:46;;;;;;;;;;;;;;;;;;5069520;28;19928;-62
2023/04/27 01:09:12;;;;;;;;;;;;;;;;;;5072245;28;19955;-62
2023/04/27 01:11:38;;;;;;;;;;;;;;;;;;5072286;28;20660;-62
2023/04/27 01:14:04;;;;;;;;;;;;;;;;;;5071665;28;20296;-62
2023/04/27 01:16:31;;;;;;;;;;;;;;;;;;5070051;28;19990;-62
2023/04/27 01:18:57;;;;;;;;;;;;;;;;;;5070784;28;19950;-62
2023/04/27 01:21:23;;;;;;;;;;;;;;;;;;5066573;28;19932;-62
2023/04/27 01:23:49;;;;;;;;;;;;;;;;;;5071003;28;20019;-62
2023/04/27 01:26:15;;;;;;;;;;;;;;;;;;5072095;28;19979;-62
2023/04/27 01:28:41;;;;;;;;;;;;;;;;;;5070431;28;20370;-62
2023/04/27 01:31:07;;;;;;;;;;;;;;;;;;5072129;28;19927;-62
2023/04/27 01:33:33;;;;;;;;;;;;;;;;;;5072165;28;20015;-62
2023/04/27 01:35:59;;;;;;;;;;;;;;;;;;5070311;28;20011;-61
2023/04/27 01:38:25;;;;;;;;;;;;;;;;;;5067646;28;20007;-62
2023/04/27 01:40:51;;;;;;;;;;;;;;;;;;5053532;28;19925;-62
2023/04/27 01:43:17;;;;;;;;;;;;;;;;;;5064744;28;20285;-62
2023/04/27 01:45:43;;;;;;;;;;;;;;;;;;5072432;28;20389;-62
2023/04/27 01:48:09;;;;;;;;;;;;;;;;;;5069855;28;19924;-62
2023/04/27 01:50:35;;;;;;;;;;;;;;;;;;5071349;28;20541;-62
2023/04/27 01:53:01;;;;;;;;;;;;;;;;;;5068032;28;19926;-62
2023/04/27 01:55:26;;;;;;;;;;;;;;;;;;5067195;28;20019;-63
2023/04/27 01:57:52;;;;;;;;;;;;;;;;;;5071986;28;20390;-63
2023/04/27 02:00:18;;;;;;;;;;;;;;;;;;5069885;28;19929;-62
2023/04/27 02:02:44;;;;;;;;;;;;;;;;;;5073136;28;19927;-62
2023/04/27 02:05:10;;;;;;;;;;;;;;;;;;5071720;28;20510;-63
2023/04/27 02:07:36;;;;;;;;;;;;;;;;;;5066642;28;19925;-62
2023/04/27 02:10:02;;;;;;;;;;;;;;;;;;5071333;28;19920;-62
2023/04/27 02:12:28;;;;;;;;;;;;;;;;;;5060050;28;19920;-62
2023/04/27 02:14:54;;;;;;;;;;;;;;;;;;5063094;28;19924;-62
2023/04/27 02:17:20;;;;;;;;;;;;;;;;;;5071716;28;19928;-63
2023/04/27 02:19:46;;;;;;;;;;;;;;;;;;5079343;22;19929;-63
2023/04/27 02:22:12;;;;;;;;;;;;;;;;;;5044599;28;19925;-62
2023/04/27 02:24:37;;;;;;;;;;;;;;;;;;5050241;28;20329;-62
2023/04/27 02:27:03;;;;;;;;;;;;;;;;;;5061769;28;19928;-62
2023/04/27 02:29:29;;;;;;;;;;;;;;;;;;5050214;28;19929;-62
2023/04/27 02:31:55;;;;;;;;;;;;;;;;;;5050434;28;20397;-62
2023/04/27 02:34:21;;;;;;;;;;;;;;;;;;5051792;28;19932;-63
2023/04/27 02:36:47;;;;;;;;;;;;;;;;;;5051366;28;19927;-62
2023/04/27 02:39:13;;;;;;;;;;;;;;;;;;5015800;28;19937;-62
2023/04/27 02:41:39;;;;;;;;;;;;;;;;;;5049756;28;20007;-62
2023/04/27 02:44:05;;;;;;;;;;;;;;;;;;5062321;28;20022;-62
2023/04/27 02:46:31;;;;;;;;;;;;;;;;;;5040851;28;20008;-62
2023/04/27 02:48:57;;;;;;;;;;;;;;;;;;5054898;28;19920;-62
2023/04/27 02:51:23;;;;;;;;;;;;;;;;;;5061190;28;19936;-62
2023/04/27 02:53:48;;;;;;;;;;;;;;;;;;5054586;28;19936;-62
2023/04/27 02:56:15;;;;;;;;;;;;;;;;;;5051604;28;19921;-62
2023/04/27 02:58:41;;;;;;;;;;;;;;;;;;5055014;28;19959;-62
2023/04/27 03:01:08;;;;;;;;;;;;;;;;;;5056993;28;19924;-62
2023/04/27 03:03:34;;;;;;;;;;;;;;;;;;5040669;28;20397;-62
2023/04/27 03:06:00;;;;;;;;;;;;;;;;;;5034241;28;20011;-62
2023/04/27 03:08:26;;;;;;;;;;;;;;;;;;5037532;28;20533;-62
2023/04/27 03:10:52;;;;;;;;;;;;;;;;;;5058534;28;19924;-61
2023/04/27 03:13:18;;;;;;;;;;;;;;;;;;5033849;28;19970;-61
2023/04/27 03:15:44;;;;;;;;;;;;;;;;;;5052469;28;19975;-62
2023/04/27 03:18:10;;;;;;;;;;;;;;;;;;5052256;28;20385;-62
2023/04/27 03:20:36;;;;;;;;;;;;;;;;;;5054492;28;19966;-61
2023/04/27 03:23:02;;;;;;;;;;;;;;;;;;5038226;28;19921;-62
2023/04/27 03:25:28;;;;;;;;;;;;;;;;;;5055367;28;19932;-62
2023/04/27 03:27:54;;;;;;;;;;;;;;;;;;5056626;28;19921;-62
2023/04/27 03:30:20;;;;;;;;;;;;;;;;;;5060963;28;19925;-62
2023/04/27 03:32:45;;;;;;;;;;;;;;;;;;5051564;28;19960;-61
2023/04/27 03:35:12;;;;;;;;;;;;;;;;;;5054980;28;19932;-62
2023/04/27 03:37:37;;;;;;;;;;;;;;;;;;5051246;28;19921;-62
2023/04/27 03:40:06;;;;;;;;;;;;;;;;;;5049845;28;19927;-65
2023/04/27 03:42:32;;;;;;;;;;;;;;;;;;5064709;28;19921;-65
2023/04/27 03:44:58;;;;;;;;;;;;;;;;;;5055542;28;20340;-65
2023/04/27 03:47:24;;;;;;;;;;;;;;;;;;5057387;28;19920;-65
2023/04/27 03:49:49;;;;;;;;;;;;;;;;;;5048554;28;19921;-65
2023/04/27 03:52:15;;;;;;;;;;;;;;;;;;5053194;28;20258;-65
2023/04/27 03:54:41;;;;;;;;;;;;;;;;;;5042822;28;19964;-65
2023/04/27 03:57:07;;;;;;;;;;;;;;;;;;5061262;28;19939;-65
2023/04/27 03:59:33;;;;;;;;;;;;;;;;;;5057235;28;19932;-65
2023/04/27 04:01:59;;;;;;;;;;;;;;;;;;5055279;28;19951;-64
2023/04/27 04:04:25;;;;;;;;;;;;;;;;;;5050384;28;20445;-65
2023/04/27 04:06:51;;;;;;;;;;;;;;;;;;5051733;28;20016;-65
2023/04/27 04:09:17;;;;;;;;;;;;;;;;;;5058366;28;20037;-65
2023/04/27 04:11:43;;;;;;;;;;;;;;;;;;5061007;28;19924;-65
2023/04/27 04:14:09;;;;;;;;;;;;;;;;;;5028804;28;19929;-66
2023/04/27 04:16:35;;;;;;;;;;;;;;;;;;5047038;28;19964;-66
2023/04/27 04:19:01;;;;;;;;;;;;;;;;;;5052428;28;19975;-64
2023/04/27 04:21:27;;;;;;;;;;;;;;;;;;5025839;28;20322;-65
2023/04/27 04:23:53;;;;;;;;;;;;;;;;;;5043815;28;20359;-65
2023/04/27 04:26:19;;;;;;;;;;;;;;;;;;5041591;28;19964;-65
2023/04/27 04:28:45;;;;;;;;;;;;;;;;;;5040962;28;19979;-65
2023/04/27 04:31:12;;;;;;;;;;;;;;;;;;5028084;28;19924;-65
2023/04/27 04:33:38;;;;;;;;;;;;;;;;;;5036255;28;20313;-65
2023/04/27 04:36:04;;;;;;;;;;;;;;;;;;5029990;28;19921;-65
2023/04/27 04:38:30;;;;;;;;;;;;;;;;;;5049620;28;19924;-65
2023/04/27 04:40:56;;;;;;;;;;;;;;;;;;5050412;28;19931;-65
2023/04/27 04:43:22;;;;;;;;;;;;;;;;;;5046756;28;19928;-65
2023/04/27 04:45:48;;;;;;;;;;;;;;;;;;5039627;28;19925;-65
2023/04/27 04:48:15;;;;;;;;;;;;;;;;;;5032710;28;19921;-65
2023/04/27 04:50:41;;;;;;;;;;;;;;;;;;5045553;28;19937;-66
2023/04/27 04:53:07;;;;;;;;;;;;;;;;;;5023639;28;19952;-66
2023/04/27 04:55:33;;;;;;;;;;;;;;;;;;5038157;28;19929;-65
2023/04/27 04:57:59;;;;;;;;;;;;;;;;;;5050611;28;19924;-65
2023/04/27 05:00:25;;;;;;;;;;;;;;;;;;5041612;28;19936;-66
2023/04/27 05:02:51;;;;;;;;;;;;;;;;;;5036390;28;19967;-66
2023/04/27 05:05:17;;;;;;;;;;;;;;;;;;5022808;28;19921;-65
2023/04/27 05:07:43;;;;;;;;;;;;;;;;;;5045361;28;20010;-65
2023/04/27 05:10:09;;;;;;;;;;;;;;;;;;5051234;28;20255;-65
2023/04/27 05:12:35;;;;;;;;;;;;;;;;;;5052602;28;20011;-65
2023/04/27 05:15:00;;;;;;;;;;;;;;;;;;5030702;28;19932;-65
2023/04/27 05:17:26;;;;;;;;;;;;;;;;;;5045758;28;19928;-65
2023/04/27 05:19:52;;;;;;;;;;;;;;;;;;5031632;28;19929;-64
2023/04/27 05:22:18;;;;;;;;;;;;;;;;;;5016161;28;19921;-61
2023/04/27 05:24:44;;;;;;;;;;;;;;;;;;5036649;28;19927;-61
2023/04/27 05:27:10;;;;;;;;;;;;;;;;;;5036482;28;20576;-62
2023/04/27 05:29:36;;;;;;;;;;;;;;;;;;5045383;28;20339;-62
2023/04/27 05:32:02;;;;;;;;;;;;;;;;;;5038178;28;19921;-62
2023/04/27 05:34:28;;;;;;;;;;;;;;;;;;5050382;28;20007;-64
2023/04/27 05:36:54;;;;;;;;;;;;;;;;;;5040577;28;19921;-62
2023/04/27 05:39:20;;;;;;;;;;;;;;;;;;5031116;28;19933;-62
2023/04/27 05:41:46;;;;;;;;;;;;;;;;;;5014858;28;19921;-61
2023/04/27 05:44:11;;;;;;;;;;;;;;;;;;5033722;28;19925;-62
2023/04/27 05:46:37;;;;;;;;;;;;;;;;;;5032142;28;19925;-62
2023/04/27 05:49:03;;;;;;;;;;;;;;;;;;5033348;28;20378;-62
2023/04/27 05:51:30;;;;;;;;;;;;;;;;;;5032923;28;19936;-62
2023/04/27 05:53:55;;;;;;;;;;;;;;;;;;5031687;28;19921;-62
2023/04/27 05:56:21;;;;;;;;;;;;;;;;;;5037250;28;19929;-62
2023/04/27 05:58:47;;;;;;;;;;;;;;;;;;5032591;28;19926;-62
2023/04/27 06:01:13;;;;;;;;;;;;;;;;;;5031856;28;19925;-62
2023/04/27 06:03:39;;;;;;;;;;;;;;;;;;5032879;28;19925;-63
2023/04/27 06:06:05;;;;;;;;;;;;;;;;;;5015584;28;19928;-63
2023/04/27 06:08:31;;;;;;;;;;;;;;;;;;5033006;28;20268;-63
2023/04/27 06:10:57;;;;;;;;;;;;;;;;;;5032709;28;19921;-63
2023/04/27 06:13:23;;;;;;;;;;;;;;;;;;5033503;28;20016;-61
2023/04/27 06:15:49;;;;;;;;;;;;;;;;;;5031713;28;19929;-62
2023/04/27 06:18:15;;;;;;;;;;;;;;;;;;5031926;28;20138;-62
2023/04/27 06:20:41;;;;;;;;;;;;;;;;;;5026198;28;20016;-61
2023/04/27 06:23:07;;;;;;;;;;;;;;;;;;5051654;28;19925;-62
2023/04/27 06:25:34;;;;;;;;;;;;;;;;;;5053158;28;19928;-62
2023/04/27 06:28:00;;;;;;;;;;;;;;;;;;5052947;28;19970;-61
2023/04/27 06:30:26;;;;;;;;;;;;;;;;;;5053233;28;20346;-62
2023/04/27 06:32:52;;;;;;;;;;;;;;;;;;5052129;28;20293;-62
2023/04/27 06:35:18;;;;;;;;;;;;;;;;;;5051826;28;19974;-62
2023/04/27 06:37:44;;;;;;;;;;;;;;;;;;5051369;28;20346;-62
2023/04/27 06:40:10;;;;;;;;;;;;;;;;;;5052705;28;20040;-62
2023/04/27 06:42:36;;;;;;;;;;;;;;;;;;5033202;28;19921;-63
2023/04/27 06:45:03;;;;;;;;;;;;;;;;;;5051020;28;19986;-62
2023/04/27 06:47:29;;;;;;;;;;;;;;;;;;5051942;28;19925;-62
2023/04/27 06:49:55;;;;;;;;;;;;;;;;;;5034367;28;19928;-62
2023/04/27 06:52:21;;;;;;;;;;;;;;;;;;5034292;28;19921;-63
2023/04/27 06:54:47;;;;;;;;;;;;;;;;;;5033943;28;19924;-63
2023/04/27 06:57:13;;;;;;;;;;;;;;;;;;5055592;28;19972;-62
2023/04/27 06:59:38;;;;;;;;;;;;;;;;;;5068503;28;19936;-62
2023/04/27 07:02:04;;;;;;;;;;;;;;;;;;5036616;28;19925;-62
2023/04/27 07:04:30;;;;;;;;;;;;;;;;;;5050964;28;21722;-62
2023/04/27 07:06:56;;;;;;;;;;;;;;;;;;5017278;28;19964;-62
2023/04/27 07:09:22;;;;;;;;;;;;;;;;;;5052656;28;19925;-62
2023/04/27 07:11:48;;;;;;;;;;;;;;;;;;5040455;28;19970;-61
2023/04/27 07:14:14;;;;;;;;;;;;;;;;;;5034896;28;19929;-62
2023/04/27 07:16:40;;;;;;;;;;;;;;;;;;5048892;28;20569;-61
2023/04/27 07:19:06;;;;;;;;;;;;;;;;;;5051840;28;19925;-62
2023/04/27 07:21:32;;;;;;;;;;;;;;;;;;5057233;28;19948;-61
2023/04/27 07:23:58;;;;;;;;;;;;;;;;;;5054827;28;19932;-62
2023/04/27 07:26:24;;;;;;;;;;;;;;;;;;5048044;28;20290;-62
2023/04/27 07:28:50;;;;;;;;;;;;;;;;;;5044900;28;20019;-61
2023/04/27 07:31:16;;;;;;;;;;;;;;;;;;5051640;28;20317;-63
2023/04/27 07:33:42;;;;;;;;;;;;;;;;;;5049967;28;19920;-61
2023/04/27 07:36:08;;;;;;;;;;;;;;;;;;5042609;28;19979;-62
2023/04/27 07:38:34;;;;;;;;;;;;;;;;;;5051889;28;19924;-63
2023/04/27 07:41:04;;;;;;;;;;;;;;;;;;5057640;28;20438;-62
2023/04/27 07:43:31;;;;;;;;;;;;;;;;;;5042393;28;19929;-63
2023/04/27 07:45:57;;;;;;;;;;;;;;;;;;5058542;28;19928;-62
2023/04/27 07:48:23;;;;;;;;;;;;;;;;;;5065245;28;19927;-62
2023/04/27 07:50:49;;;;;;;;;;;;;;;;;;5058338;28;19928;-62
2023/04/27 07:53:15;;;;;;;;;;;;;;;;;;5053348;28;19928;-62
2023/04/27 07:55:43;;;;;;;;;;;;;;;;;;5056200;28;20373;-61
2023/04/27 07:58:09;;;;;;;;;;;;;;;;;;5040568;28;19979;-62
2023/04/27 08:00:35;;;;;;;;;;;;;;;;;;5045073;28;19925;-62
2023/04/27 08:03:01;;;;;;;;;;;;;;;;;;5062691;28;19925;-62
2023/04/27 08:05:27;;;;;;;;;;;;;;;;;;5043269;28;19977;-62
2023/04/27 08:07:53;;;;;;;;;;;;;;;;;;5060096;28;20547;-61
2023/04/27 08:10:18;;;;;;;;;;;;;;;;;;5057601;28;19920;-62
2023/04/27 08:12:44;;;;;;;;;;;;;;;;;;5064206;28;19920;-62
2023/04/27 08:15:10;;;;;;;;;;;;;;;;;;5057944;28;20003;-63
2023/04/27 08:17:39;;;;;;;;;;;;;;;;;;5058382;28;19927;-63
2023/04/27 08:20:05;;;;;;;;;;;;;;;;;;5054795;28;20351;-62
2023/04/27 08:22:31;;;;;;;;;;;;;;;;;;5030817;28;19936;-62
2023/04/27 08:24:57;;;;;;;;;;;;;;;;;;5072656;28;19921;-62
2023/04/27 08:27:23;;;;;;;;;;;;;;;;;;5058178;28;19920;-62
2023/04/27 08:29:49;;;;;;;;;;;;;;;;;;5035704;28;20039;-62
2023/04/27 08:32:15;;;;;;;;;;;;;;;;;;5040229;28;19959;-62
2023/04/27 08:34:41;;;;;;;;;;;;;;;;;;5055003;28;19940;-61
2023/04/27 08:37:07;;;;;;;;;;;;;;;;;;5047338;28;19924;-61
2023/04/27 08:39:33;;;;;;;;;;;;;;;;;;5043952;28;19933;-62
2023/04/27 08:41:59;;;;;;;;;;;;;;;;;;5031791;28;19975;-62
2023/04/27 08:44:25;;;;;;;;;;;;;;;;;;5036246;28;19925;-62
2023/04/27 08:46:51;;;;;;;;;;;;;;;;;;5050660;28;19929;-61
2023/04/27 08:49:17;;;;;;;;;;;;;;;;;;5036877;28;19947;-61
2023/04/27 08:51:42;;;;;;;;;;;;;;;;;;5053188;28;19924;-61
2023/04/27 08:54:08;;;;;;;;;;;;;;;;;;5046431;28;19921;-62
2023/04/27 08:56:34;;;;;;;;;;;;;;;;;;5054766;28;19974;-62
2023/04/27 08:59:02;;;;;;;;;;;;;;;;;;5025715;28;19925;-62
2023/04/27 09:01:28;;;;;;;;;;;;;;;;;;5034973;28;19932;-62
2023/04/27 09:03:54;;;;;;;;;;;;;;;;;;5035908;28;19924;-62
2023/04/27 09:06:20;;;;;;;;;;;;;;;;;;5051145;28;19921;-62
2023/04/27 09:08:46;;;;;;;;;;;;;;;;;;5048647;28;19928;-62
2023/04/27 09:11:12;;;;;;;;;;;;;;;;;;5036693;28;19952;-62
2023/04/27 09:13:38;;;;;;;;;;;;;;;;;;5050863;28;19927;-62
2023/04/27 09:16:04;;;;;;;;;;;;;;;;;;5047128;28;19920;-62
2023/04/27 09:18:32;;;;;;;;;;;;;;;;;;5052319;28;20294;-62
2023/04/27 09:20:58;;;;;;;;;;;;;;;;;;5056915;28;19924;-61
2023/04/27 09:23:25;;;;;;;;;;;;;;;;;;5053480;28;19921;-62
2023/04/27 09:25:51;;;;;;;;;;;;;;;;;;5052719;28;20550;-62
2023/04/27 09:28:17;;;;;;;;;;;;;;;;;;5053435;28;19921;-62
2023/04/27 09:30:43;;;;;;;;;;;;;;;;;;5053224;28;19931;-62
2023/04/27 09:33:09;;;;;;;;;;;;;;;;;;5038227;28;20247;-62
2023/04/27 09:35:35;;;;;;;;;;;;;;;;;;5046926;28;19920;-62
2023/04/27 09:38:01;;;;;;;;;;;;;;;;;;5040376;28;19987;-62
2023/04/27 09:40:28;;;;;;;;;;;;;;;;;;5036156;28;20359;-62
2023/04/27 09:42:54;;;;;;;;;;;;;;;;;;5046613;28;19964;-62
2023/04/27 09:45:21;;;;;;;;;;;;;;;;;;5038559;28;20011;-62
2023/04/27 09:47:47;;;;;;;;;;;;;;;;;;5022705;28;19928;-62
2023/04/27 09:50:13;;;;;;;;;;;;;;;;;;5051110;28;20641;-63
2023/04/27 09:52:38;;;;;;;;;;;;;;;;;;5049139;28;19944;-63
2023/04/27 09:55:05;;;;;;;;;;;;;;;;;;5053640;28;19936;-62
2023/04/27 09:57:31;;;;;;;;;;;;;;;;;;5057747;28;19921;-63
2023/04/27 09:59:57;;;;;;;;;;;;;;;;;;5029093;28;19931;-62
2023/04/27 10:02:23;;;;;;;;;;;;;;;;;;5046667;28;19928;-62
2023/04/27 10:04:49;;;;;;;;;;;;;;;;;;5045856;28;20341;-62
2023/04/27 10:07:16;;;;;;;;;;;;;;;;;;5059035;28;20385;-62
2023/04/27 10:09:42;;;;;;;;;;;;;;;;;;5057030;28;19927;-62
2023/04/27 10:12:07;;;;;;;;;;;;;;;;;;5050996;28;20409;-62
2023/04/27 10:14:33;;;;;;;;;;;;;;;;;;5033704;28;19971;-61
2023/04/27 10:16:59;;;;;;;;;;;;;;;;;;5043765;28;20012;-61
2023/04/27 10:19:25;;;;;;;;;;;;;;;;;;5049367;28;19936;-62
2023/04/27 10:21:51;;;;;;;;;;;;;;;;;;5038477;28;20381;-61
2023/04/27 10:24:17;;;;;;;;;;;;;;;;;;5029247;28;20019;-62
2023/04/27 10:26:43;;;;;;;;;;;;;;;;;;5052339;28;19936;-61
2023/04/27 10:29:11;;;;;;;;;;;;;;;;;;5044934;28;20035;-62
2023/04/27 10:31:37;;;;;;;;;;;;;;;;;;5056860;28;19920;-61
2023/04/27 10:34:02;;;;;;;;;;;;;;;;;;5039798;28;19990;-61
2023/04/27 10:36:28;;;;;;;;;;;;;;;;;;5050282;28;19921;-61
2023/04/27 10:38:54;;;;;;;;;;;;;;;;;;5029479;28;19924;-62
2023/04/27 10:41:22;;;;;;;;;;;;;;;;;;5055620;28;20370;-62
2023/04/27 10:43:48;;;;;;;;;;;;;;;;;;5050120;28;19932;-62
2023/04/27 10:46:14;;;;;;;;;;;;;;;;;;5044106;28;19920;-62
2023/04/27 10:48:41;;;;;;;;;;;;;;;;;;5047213;28;20067;-62
2023/04/27 10:51:07;;;;;;;;;;;;;;;;;;5027449;28;19927;-62
2023/04/27 10:53:32;;;;;;;;;;;;;;;;;;5029973;28;20357;-61
2023/04/27 10:55:58;;;;;;;;;;;;;;;;;;5031440;28;19927;-62
2023/04/27 10:58:24;;;;;;;;;;;;;;;;;;5049688;28;20341;-62
2023/04/27 11:00:50;;;;;;;;;;;;;;;;;;5038860;28;19932;-61
2023/04/27 11:03:17;;;;;;;;;;;;;;;;;;5038599;28;20014;-61
2023/04/27 11:05:43;;;;;;;;;;;;;;;;;;5050214;28;19925;-62
2023/04/27 11:08:09;;;;;;;;;;;;;;;;;;5041153;28;19929;-62
2023/04/27 11:10:35;;;;;;;;;;;;;;;;;;5049364;28;20357;-62
2023/04/27 11:13:01;;;;;;;;;;;;;;;;;;5044847;28;20369;-62
2023/04/27 11:15:27;;;;;;;;;;;;;;;;;;5032738;28;19928;-61
2023/04/27 11:17:53;;;;;;;;;;;;;;;;;;5032347;28;19929;-62
2023/04/27 11:20:21;;;;;;;;;;;;;;;;;;5048950;28;20397;-62
2023/04/27 11:22:47;;;;;;;;;;;;;;;;;;5031825;28;19921;-62
2023/04/27 11:25:13;;;;;;;;;;;;;;;;;;5053149;28;19927;-62
2023/04/27 11:27:39;;;;;;;;;;;;;;;;;;5029739;28;20289;-61
2023/04/27 11:30:06;;;;;;;;;;;;;;;;;;5045418;28;20357;-61
2023/04/27 11:32:32;;;;;;;;;;;;;;;;;;5047434;28;20389;-62
2023/04/27 11:34:58;;;;;;;;;;;;;;;;;;5046310;28;19920;-62
2023/04/27 11:37:24;;;;;;;;;;;;;;;;;;5027601;28;20654;-61
2023/04/27 11:39:50;;;;;;;;;;;;;;;;;;5014780;28;19933;-61
2023/04/27 11:42:17;;;;;;;;;;;;;;;;;;5024969;28;19967;-61
2023/04/27 11:44:42;;;;;;;;;;;;;;;;;;5045037;28;20277;-62
2023/04/27 11:47:08;;;;;;;;;;;;;;;;;;5028192;28;19921;-62
2023/04/27 11:49:36;;;;;;;;;;;;;;;;;;5052260;28;19925;-62
2023/04/27 11:52:02;;;;;;;;;;;;;;;;;;5030838;28;21025;-61
2023/04/27 11:54:28;;;;;;;;;;;;;;;;;;5039048;28;19924;-62
2023/04/27 11:56:54;;;;;;;;;;;;;;;;;;5034402;28;20008;-62
2023/04/27 11:59:20;;;;;;;;;;;;;;;;;;5063314;28;20700;-62
2023/04/27 12:01:46;;;;;;;;;;;;;;;;;;5042870;28;19931;-61
2023/04/27 12:04:12;;;;;;;;;;;;;;;;;;5061476;28;19927;-62
2023/04/27 12:06:38;;;;;;;;;;;;;;;;;;5053137;28;19921;-62
2023/04/27 12:09:04;;;;;;;;;;;;;;;;;;5062844;28;19944;-62
2023/04/27 12:11:30;;;;;;;;;;;;;;;;;;5047192;28;20293;-62
2023/04/27 12:13:56;;;;;;;;;;;;;;;;;;5051879;28;19921;-62
2023/04/27 12:16:22;;;;;;;;;;;;;;;;;;5049403;28;20012;-61
2023/04/27 12:18:48;;;;;;;;;;;;;;;;;;5051579;28;20294;-62
2023/04/27 12:21:14;;;;;;;;;;;;;;;;;;5055197;28;19978;-62
2023/04/27 12:23:40;;;;;;;;;;;;;;;;;;5050594;28;19925;-62
2023/04/27 12:26:06;;;;;;;;;;;;;;;;;;5045391;28;19933;-62
2023/04/27 12:28:32;;;;;;;;;;;;;;;;;;5042464;28;19931;-62
2023/04/27 12:30:58;;;;;;;;;;;;;;;;;;5043811;28;19921;-62
2023/04/27 12:33:24;;;;;;;;;;;;;;;;;;5048955;28;19920;-62
2023/04/27 12:35:50;;;;;;;;;;;;;;;;;;5016633;28;19921;-62
2023/04/27 12:38:16;;;;;;;;;;;;;;;;;;5025240;28;19931;-61
2023/04/27 12:40:42;;;;;;;;;;;;;;;;;;5052028;28;19933;-61
2023/04/27 12:43:08;;;;;;;;;;;;;;;;;;5035780;28;19936;-61
2023/04/27 12:45:34;;;;;;;;;;;;;;;;;;5060726;28;19993;-61
2023/04/27 12:48:00;;;;;;;;;;;;;;;;;;5053547;28;20378;-61
2023/04/27 12:50:26;;;;;;;;;;;;;;;;;;5027877;28;19921;-61
2023/04/27 12:52:52;;;;;;;;;;;;;;;;;;5051903;28;19948;-62
2023/04/27 12:55:18;;;;;;;;;;;;;;;;;;5051530;28;19928;-62
2023/04/27 12:57:44;;;;;;;;;;;;;;;;;;5050288;28;19924;-62
2023/04/27 13:00:12;;;;;;;;;;;;;;;;;;5053195;28;21285;-62
2023/04/27 13:02:38;;;;;;;;;;;;;;;;;;5034316;28;20015;-62
2023/04/27 13:05:06;;;;;;;;;;;;;;;;;;5044632;28;20013;-62
2023/04/27 13:07:32;;;;;;;;;;;;;;;;;;5045985;28;19925;-62
2023/04/27 13:09:58;;;;;;;;;;;;;;;;;;5071482;28;19921;-62
2023/04/27 13:12:24;;;;;;;;;;;;;;;;;;5038735;28;19943;-62
2023/04/27 13:14:50;;;;;;;;;;;;;;;;;;5044400;28;20011;-62
2023/04/27 13:17:16;;;;;;;;;;;;;;;;;;5055080;28;20112;-62
2023/04/27 13:19:42;;;;;;;;;;;;;;;;;;5042139;28;20011;-61
2023/04/27 13:22:09;;;;;;;;;;;;;;;;;;5052583;28;20003;-62
2023/04/27 13:24:35;;;;;;;;;;;;;;;;;;5051804;28;20529;-62
2023/04/27 13:27:01;;;;;;;;;;;;;;;;;;5049292;28;19925;-62
2023/04/27 13:29:27;;;;;;;;;;;;;;;;;;5051356;28;19970;-61
2023/04/27 13:31:53;;;;;;;;;;;;;;;;;;5048214;28;20016;-61
2023/04/27 13:34:19;;;;;;;;;;;;;;;;;;5050226;28;20051;-61
2023/04/27 13:36:45;;;;;;;;;;;;;;;;;;5062782;28;20421;-62
2023/04/27 13:39:12;;;;;;;;;;;;;;;;;;5039657;28;19940;-63
2023/04/27 13:41:37;;;;;;;;;;;;;;;;;;5029982;28;19920;-62
2023/04/27 13:44:03;;;;;;;;;;;;;;;;;;5052596;28;20031;-62
2023/04/27 13:46:29;;;;;;;;;;;;;;;;;;5049157;28;19928;-60
2023/04/27 13:48:56;;;;;;;;;;;;;;;;;;5047514;28;19924;-61
2023/04/27 13:51:22;;;;;;;;;;;;;;;;;;5054054;28;19924;-61
2023/04/27 13:53:47;;;;;;;;;;;;;;;;;;5065944;28;20070;-61
2023/04/27 13:56:13;;;;;;;;;;;;;;;;;;5035281;28;19925;-60
2023/04/27 13:58:40;;;;;;;;;;;;;;;;;;5054138;28;20266;-61
2023/04/27 14:01:07;;;;;;;;;;;;;;;;;;5052977;28;20000;-65
2023/04/27 14:03:33;;;;;;;;;;;;;;;;;;5048054;28;19921;-65
2023/04/27 14:06:00;;;;;;;;;;;;;;;;;;5050191;28;20617;-65
2023/04/27 14:08:26;;;;;;;;;;;;;;;;;;5058729;28;19924;-65
2023/04/27 14:10:52;;;;;;;;;;;;;;;;;;5033630;28;20015;-65
2023/04/27 14:13:18;;;;;;;;;;;;;;;;;;5052222;28;19921;-64
2023/04/27 14:15:44;;;;;;;;;;;;;;;;;;5052279;28;19925;-65
2023/04/27 14:18:10;;;;;;;;;;;;;;;;;;5047773;28;20007;-64
2023/04/27 14:20:36;;;;;;;;;;;;;;;;;;5030832;28;20008;-64
2023/04/27 14:23:02;;;;;;;;;;;;;;;;;;5044677;28;19968;-65
2023/04/27 14:25:31;;;;;;;;;;;;;;;;;;5047257;28;20008;-65
2023/04/27 14:27:57;;;;;;;;;;;;;;;;;;5046738;28;19921;-64
2023/04/27 14:30:23;;;;;;;;;;;;;;;;;;5034140;28;19935;-65
2023/04/27 14:32:49;;;;;;;;;;;;;;;;;;5048960;28;19995;-64
2023/04/27 14:35:15;;;;;;;;;;;;;;;;;;5079834;23;20297;-61
2023/04/27 14:37:41;;;;;;;;;;;;;;;;;;5074648;28;19931;-62
2023/04/27 14:40:07;;;;;;;;;;;;;;;;;;5093071;28;19930;-62
2023/04/27 14:42:34;;;;;;;;;;;;;;;;;;5093269;28;20023;-62
2023/04/27 14:45:00;;;;;;;;;;;;;;;;;;5074535;28;19973;-61
2023/04/27 14:47:26;;;;;;;;;;;;;;;;;;5085010;28;19924;-62
2023/04/27 14:49:51;;;;;;;;;;;;;;;;;;5072789;28;20246;-61
2023/04/27 14:52:17;;;;;;;;;;;;;;;;;;5079246;28;19920;-61
2023/04/27 14:54:43;;;;;;;;;;;;;;;;;;5092852;28;19927;-61
2023/04/27 14:57:09;;;;;;;;;;;;;;;;;;5092891;28;19977;-61
2023/04/27 14:59:35;;;;;;;;;;;;;;;;;;5092758;28;19923;-61
2023/04/27 15:02:02;;;;;;;;;;;;;;;;;;5057588;28;19924;-61
2023/04/27 15:04:28;;;;;;;;;;;;;;;;;;5053953;28;20361;-61
2023/04/27 15:06:54;;;;;;;;;;;;;;;;;;5061738;28;19920;-61
2023/04/27 15:09:20;;;;;;;;;;;;;;;;;;5092518;28;19927;-62
2023/04/27 15:11:46;;;;;;;;;;;;;;;;;;5066256;28;19924;-61
2023/04/27 15:14:12;;;;;;;;;;;;;;;;;;5082627;28;20041;-61
2023/04/27 15:16:38;;;;;;;;;;;;;;;;;;5057657;28;19924;-61
2023/04/27 15:19:04;;;;;;;;;;;;;;;;;;5085111;28;19973;-61
2023/04/27 15:21:30;;;;;;;;;;;;;;;;;;5092656;28;19928;-61
2023/04/27 15:23:56;;;;;;;;;;;;;;;;;;5089843;28;19966;-61
2023/04/27 15:26:22;;;;;;;;;;;;;;;;;;5084778;28;19959;-61
2023/04/27 15:28:47;;;;;;;;;;;;;;;;;;5085890;28;20289;-61
2023/04/27 15:31:14;;;;;;;;;;;;;;;;;;5081341;28;19924;-61
2023/04/27 15:33:40;;;;;;;;;;;;;;;;;;5087218;28;19924;-62
2023/04/27 15:36:06;;;;;;;;;;;;;;;;;;5085767;28;19920;-61
2023/04/27 15:38:32;;;;;;;;;;;;;;;;;;5090728;28;20380;-61
2023/04/27 15:40:58;;;;;;;;;;;;;;;;;;5092391;28;19931;-61
2023/04/27 15:43:23;;;;;;;;;;;;;;;;;;5073926;28;19920;-61
2023/04/27 15:45:49;;;;;;;;;;;;;;;;;;5073920;28;19931;-61
2023/04/27 15:48:15;;;;;;;;;;;;;;;;;;5086198;28;20364;-62
2023/04/27 15:50:41;;;;;;;;;;;;;;;;;;5090732;28;19927;-62
2023/04/27 15:53:07;;;;;;;;;;;;;;;;;;5094901;28;19920;-62
2023/04/27 15:55:33;;;;;;;;;;;;;;;;;;5074388;28;19921;-61
2023/04/27 15:57:59;;;;;;;;;;;;;;;;;;5093026;28;19992;-62
2023/04/27 16:00:25;;;;;;;;;;;;;;;;;;5089638;28;19928;-62
2023/04/27 16:02:51;;;;;;;;;;;;;;;;;;5090724;28;20003;-62
2023/04/27 16:05:17;;;;;;;;;;;;;;;;;;5094652;28;19920;-62
2023/04/27 16:07:43;;;;;;;;;;;;;;;;;;5089193;28;19927;-62
2023/04/27 16:10:09;;;;;;;;;;;;;;;;;;5089905;28;19924;-62
2023/04/27 16:12:35;;;;;;;;;;;;;;;;;;5094834;28;19924;-61
2023/04/27 16:15:01;;;;;;;;;;;;;;;;;;5078422;28;20035;-62
2023/04/27 16:17:27;;;;;;;;;;;;;;;;;;5095923;28;20615;-61
2023/04/27 16:19:53;;;;;;;;;;;;;;;;;;5093180;28;20529;-61
2023/04/27 16:22:20;;;;;;;;;;;;;;;;;;5093620;28;19946;-61
2023/04/27 16:24:46;;;;;;;;;;;;;;;;;;5066944;28;19924;-61
2023/04/27 16:27:12;;;;;;;;;;;;;;;;;;5070393;28;19919;-62
2023/04/27 16:29:38;;;;;;;;;;;;;;;;;;5083458;28;20387;-61
2023/04/27 16:32:04;;;;;;;;;;;;;;;;;;5092775;28;19977;-61
2023/04/27 16:34:30;;;;;;;;;;;;;;;;;;5093980;28;19930;-61
2023/04/27 16:36:56;;;;;;;;;;;;;;;;;;5075500;28;19967;-61